sensor_id;sensor_type;location;lat;lon;timestamp;P1;durP1;ratioP1;P2;durP2;ratioP2
10661;SDS011;5379;51.034;7.006;2024-02-26T00:00:22;0.50;;;0.50;;
10661;SDS011;5379;51.034;7.006;2024-02-26T00:02:49;2.23;;;0.70;;
10661;SDS011;5379;51.034;7.006;2024-02-26T00:05:16;0.90;;;0.90;;
10661;SDS011;5379;51.034;7.006;2024-02-26T00:07:43;1.03;;;1.03;;
10661;SDS011;5379;51.034;7.006;2024-02-26T00:10:10;0.90;;;0.90;;
10661;SDS011;5379;51.034;7.006;2024-02-26T00:12:37;0.80;;;0.80;;
10661;SDS011;5379;51.034;7.006;2024-02-26T00:15:06;0.77;;;0.77;;
10661;SDS011;5379;51.034;7.006;2024-02-26T00:17:34;1.00;;;0.90;;
10661;SDS011;5379;51.034;7.006;2024-02-26T00:20:00;1.00;;;0.90;;
10661;SDS011;5379;51.034;7.006;2024-02-26T00:22:29;0.77;;;0.77;;
10661;SDS011;5379;51.034;7.006;2024-02-26T00:24:56;1.17;;;1.17;;
10661;SDS011;5379;51.034;7.006;2024-02-26T00:27:23;0.60;;;0.60;;
10661;SDS011;5379;51.034;7.006;2024-02-26T00:29:49;0.50;;;0.50;;
10661;SDS011;5379;51.034;7.006;2024-02-26T00:32:17;0.63;;;0.63;;
10661;SDS011;5379;51.034;7.006;2024-02-26T00:34:44;1.00;;;0.90;;
10661;SDS011;5379;51.034;7.006;2024-02-26T00:37:11;1.27;;;0.67;;
10661;SDS011;5379;51.034;7.006;2024-02-26T00:39:38;0.57;;;0.57;;
10661;SDS011;5379;51.034;7.006;2024-02-26T00:42:05;0.40;;;0.40;;
10661;SDS011;5379;51.034;7.006;2024-02-26T00:44:32;0.73;;;0.57;;
10661;SDS011;5379;51.034;7.006;2024-02-26T00:46:59;0.80;;;0.80;;
10661;SDS011;5379;51.034;7.006;2024-02-26T00:49:27;0.50;;;0.50;;
10661;SDS011;5379;51.034;7.006;2024-02-26T00:51:54;0.50;;;0.50;;
10661;SDS011;5379;51.034;7.006;2024-02-26T00:54:21;0.70;;;0.70;;
10661;SDS011;5379;51.034;7.006;2024-02-26T00:56:47;0.50;;;0.50;;
10661;SDS011;5379;51.034;7.006;2024-02-26T00:59:14;0.70;;;0.70;;
10661;SDS011;5379;51.034;7.006;2024-02-26T05:32:56;1.37;;;1.27;;
10661;SDS011;5379;51.034;7.006;2024-02-26T05:35:22;1.23;;;1.00;;
10661;SDS011;5379;51.034;7.006;2024-02-26T05:37:49;0.90;;;0.90;;
10661;SDS011;5379;51.034;7.006;2024-02-26T05:40:16;3.07;;;1.20;;
10661;SDS011;5379;51.034;7.006;2024-02-26T05:42:43;0.83;;;0.60;;
10661;SDS011;5379;51.034;7.006;2024-02-26T05:45:10;1.30;;;1.20;;
10661;SDS011;5379;51.034;7.006;2024-02-26T05:47:38;0.53;;;0.53;;
10661;SDS011;5379;51.034;7.006;2024-02-26T05:50:08;1.10;;;1.07;;
10661;SDS011;5379;51.034;7.006;2024-02-26T05:52:35;0.73;;;0.73;;
10661;SDS011;5379;51.034;7.006;2024-02-26T05:55:03;1.00;;;0.87;;
10661;SDS011;5379;51.034;7.006;2024-02-26T05:57:30;1.00;;;1.00;;
10661;SDS011;5379;51.034;7.006;2024-02-26T05:59:57;1.27;;;1.17;;
10661;SDS011;5379;51.034;7.006;2024-02-26T06:02:28;1.10;;;1.00;;
10661;SDS011;5379;51.034;7.006;2024-02-26T06:04:56;2.50;;;1.13;;
10661;SDS011;5379;51.034;7.006;2024-02-26T06:07:23;0.90;;;0.90;;
10661;SDS011;5379;51.034;7.006;2024-02-26T06:09:50;0.67;;;0.67;;
10661;SDS011;5379;51.034;7.006;2024-02-26T06:12:17;5.70;;;1.30;;
10661;SDS011;5379;51.034;7.006;2024-02-26T06:14:43;1.00;;;0.90;;
10661;SDS011;5379;51.034;7.006;2024-02-26T06:17:10;1.77;;;1.33;;
10661;SDS011;5379;51.034;7.006;2024-02-26T06:19:37;1.57;;;1.40;;
10661;SDS011;5379;51.034;7.006;2024-02-26T06:22:05;1.23;;;1.20;;
10661;SDS011;5379;51.034;7.006;2024-02-26T06:24:32;3.27;;;1.13;;
10661;SDS011;5379;51.034;7.006;2024-02-26T06:26:59;1.50;;;1.40;;
10661;SDS011;5379;51.034;7.006;2024-02-26T06:29:26;1.50;;;1.40;;
10661;SDS011;5379;51.034;7.006;2024-02-26T06:31:53;1.10;;;1.10;;
10661;SDS011;5379;51.034;7.006;2024-02-26T06:34:20;0.90;;;0.90;;
10661;SDS011;5379;51.034;7.006;2024-02-26T06:36:47;1.30;;;1.20;;
10661;SDS011;5379;51.034;7.006;2024-02-26T06:39:15;1.93;;;1.43;;
10661;SDS011;5379;51.034;7.006;2024-02-26T06:41:43;8.07;;;4.50;;
10661;SDS011;5379;51.034;7.006;2024-02-26T06:44:11;1.67;;;1.40;;
10661;SDS011;5379;51.034;7.006;2024-02-26T06:46:39;1.07;;;1.07;;
10661;SDS011;5379;51.034;7.006;2024-02-26T06:49:05;1.10;;;1.07;;
10661;SDS011;5379;51.034;7.006;2024-02-26T06:51:32;2.20;;;2.07;;
10661;SDS011;5379;51.034;7.006;2024-02-26T06:53:59;3.73;;;3.43;;
10661;SDS011;5379;51.034;7.006;2024-02-26T06:56:27;0.70;;;0.70;;
10661;SDS011;5379;51.034;7.006;2024-02-26T06:58:54;0.80;;;0.80;;
10661;SDS011;5379;51.034;7.006;2024-02-26T07:01:21;1.20;;;1.03;;
10661;SDS011;5379;51.034;7.006;2024-02-26T07:03:48;1.40;;;1.30;;
10661;SDS011;5379;51.034;7.006;2024-02-26T07:06:14;0.77;;;0.77;;
10661;SDS011;5379;51.034;7.006;2024-02-26T07:08:41;2.00;;;1.40;;
10661;SDS011;5379;51.034;7.006;2024-02-26T07:11:08;1.53;;;1.43;;
10661;SDS011;5379;51.034;7.006;2024-02-26T07:13:36;0.90;;;0.90;;
10661;SDS011;5379;51.034;7.006;2024-02-26T07:16:03;0.93;;;0.93;;
10661;SDS011;5379;51.034;7.006;2024-02-26T07:18:31;0.63;;;0.63;;
10661;SDS011;5379;51.034;7.006;2024-02-26T07:21:01;1.10;;;1.10;;
10661;SDS011;5379;51.034;7.006;2024-02-26T07:23:28;1.13;;;1.10;;
10661;SDS011;5379;51.034;7.006;2024-02-26T07:25:55;0.87;;;0.87;;
10661;SDS011;5379;51.034;7.006;2024-02-26T07:28:22;1.57;;;1.47;;
10661;SDS011;5379;51.034;7.006;2024-02-26T07:30:51;0.50;;;0.50;;
10661;SDS011;5379;51.034;7.006;2024-02-26T07:33:18;1.30;;;1.30;;
10661;SDS011;5379;51.034;7.006;2024-02-26T07:35:44;0.90;;;0.90;;
10661;SDS011;5379;51.034;7.006;2024-02-26T07:38:11;4.30;;;1.40;;
10661;SDS011;5379;51.034;7.006;2024-02-26T07:40:39;1.40;;;1.30;;
10661;SDS011;5379;51.034;7.006;2024-02-26T07:43:05;0.60;;;0.60;;
10661;SDS011;5379;51.034;7.006;2024-02-26T07:45:32;0.97;;;0.97;;
10661;SDS011;5379;51.034;7.006;2024-02-26T07:48:02;0.53;;;0.53;;
10661;SDS011;5379;51.034;7.006;2024-02-26T07:50:29;0.70;;;0.70;;
10661;SDS011;5379;51.034;7.006;2024-02-26T07:52:56;2.43;;;1.23;;
10661;SDS011;5379;51.034;7.006;2024-02-26T07:55:23;0.93;;;0.93;;
10661;SDS011;5379;51.034;7.006;2024-02-26T07:57:50;2.40;;;1.07;;
10661;SDS011;5379;51.034;7.006;2024-02-26T08:00:16;2.07;;;1.10;;
10661;SDS011;5379;51.034;7.006;2024-02-26T08:02:43;0.60;;;0.60;;
10661;SDS011;5379;51.034;7.006;2024-02-26T08:05:11;0.50;;;0.50;;
10661;SDS011;5379;51.034;7.006;2024-02-26T08:07:39;0.83;;;0.67;;
10661;SDS011;5379;51.034;7.006;2024-02-26T08:10:06;0.60;;;0.60;;
10661;SDS011;5379;51.034;7.006;2024-02-26T08:12:33;0.87;;;0.87;;
10661;SDS011;5379;51.034;7.006;2024-02-26T08:15:00;0.53;;;0.53;;
10661;SDS011;5379;51.034;7.006;2024-02-26T08:17:27;0.70;;;0.70;;
10661;SDS011;5379;51.034;7.006;2024-02-26T08:19:54;1.83;;;1.07;;
10661;SDS011;5379;51.034;7.006;2024-02-26T08:22:22;1.17;;;0.90;;
10661;SDS011;5379;51.034;7.006;2024-02-26T08:24:49;1.70;;;1.60;;
10661;SDS011;5379;51.034;7.006;2024-02-26T08:27:16;0.97;;;0.97;;
10661;SDS011;5379;51.034;7.006;2024-02-26T08:29:43;1.93;;;1.23;;
10661;SDS011;5379;51.034;7.006;2024-02-26T08:32:10;1.00;;;1.00;;
10661;SDS011;5379;51.034;7.006;2024-02-26T08:34:36;1.70;;;1.43;;
10661;SDS011;5379;51.034;7.006;2024-02-26T08:37:03;1.30;;;1.20;;
10661;SDS011;5379;51.034;7.006;2024-02-26T08:39:32;2.03;;;1.30;;
10661;SDS011;5379;51.034;7.006;2024-02-26T08:41:59;1.00;;;1.00;;
10661;SDS011;5379;51.034;7.006;2024-02-26T08:44:26;0.60;;;0.60;;
10661;SDS011;5379;51.034;7.006;2024-02-26T08:46:53;0.87;;;0.87;;
10661;SDS011;5379;51.034;7.006;2024-02-26T08:49:19;5.83;;;1.10;;
10661;SDS011;5379;51.034;7.006;2024-02-26T08:51:48;1.37;;;1.27;;
10661;SDS011;5379;51.034;7.006;2024-02-26T08:54:15;0.83;;;0.83;;
10661;SDS011;5379;51.034;7.006;2024-02-26T08:56:43;1.23;;;1.10;;
10661;SDS011;5379;51.034;7.006;2024-02-26T08:59:09;0.83;;;0.83;;
10661;SDS011;5379;51.034;7.006;2024-02-26T09:01:36;0.60;;;0.60;;
10661;SDS011;5379;51.034;7.006;2024-02-26T09:04:03;2.30;;;1.37;;
10661;SDS011;5379;51.034;7.006;2024-02-26T09:06:30;1.37;;;1.37;;
10661;SDS011;5379;51.034;7.006;2024-02-26T09:08:57;0.90;;;0.90;;
10661;SDS011;5379;51.034;7.006;2024-02-26T09:11:23;1.50;;;1.40;;
10661;SDS011;5379;51.034;7.006;2024-02-26T09:13:52;1.27;;;1.27;;
10661;SDS011;5379;51.034;7.006;2024-02-26T09:16:18;0.90;;;0.90;;
10661;SDS011;5379;51.034;7.006;2024-02-26T09:18:45;0.80;;;0.80;;
10661;SDS011;5379;51.034;7.006;2024-02-26T09:21:12;1.10;;;1.10;;
10661;SDS011;5379;51.034;7.006;2024-02-26T09:23:41;0.83;;;0.83;;
10661;SDS011;5379;51.034;7.006;2024-02-26T09:26:08;1.20;;;1.20;;
10661;SDS011;5379;51.034;7.006;2024-02-26T09:28:34;0.70;;;0.70;;
10661;SDS011;5379;51.034;7.006;2024-02-26T09:31:04;1.83;;;1.30;;
10661;SDS011;5379;51.034;7.006;2024-02-26T09:33:31;1.20;;;1.13;;
10661;SDS011;5379;51.034;7.006;2024-02-26T09:35:58;0.93;;;0.93;;
10661;SDS011;5379;51.034;7.006;2024-02-26T09:38:25;0.50;;;0.50;;
10661;SDS011;5379;51.034;7.006;2024-02-26T09:40:52;0.90;;;0.90;;
10661;SDS011;5379;51.034;7.006;2024-02-26T09:43:21;0.90;;;0.90;;
10661;SDS011;5379;51.034;7.006;2024-02-26T09:45:49;1.40;;;1.30;;
10661;SDS011;5379;51.034;7.006;2024-02-26T09:48:18;0.80;;;0.80;;
10661;SDS011;5379;51.034;7.006;2024-02-26T09:50:46;2.17;;;1.07;;
10661;SDS011;5379;51.034;7.006;2024-02-26T09:53:13;1.07;;;1.00;;
10661;SDS011;5379;51.034;7.006;2024-02-26T09:55:40;0.87;;;0.87;;
10661;SDS011;5379;51.034;7.006;2024-02-26T09:58:07;1.17;;;1.17;;
10661;SDS011;5379;51.034;7.006;2024-02-26T10:00:39;1.37;;;1.27;;
10661;SDS011;5379;51.034;7.006;2024-02-26T10:03:09;1.30;;;1.30;;
10661;SDS011;5379;51.034;7.006;2024-02-26T10:05:42;1.40;;;1.30;;
10661;SDS011;5379;51.034;7.006;2024-02-26T10:08:11;1.50;;;1.40;;
10661;SDS011;5379;51.034;7.006;2024-02-26T10:10:38;1.70;;;1.60;;
10661;SDS011;5379;51.034;7.006;2024-02-26T10:13:05;1.27;;;1.17;;
10661;SDS011;5379;51.034;7.006;2024-02-26T10:15:35;3.80;;;3.57;;
10661;SDS011;5379;51.034;7.006;2024-02-26T10:18:03;1.33;;;1.30;;
10661;SDS011;5379;51.034;7.006;2024-02-26T10:20:30;1.20;;;1.20;;
10661;SDS011;5379;51.034;7.006;2024-02-26T10:23:00;1.30;;;1.30;;
10661;SDS011;5379;51.034;7.006;2024-02-26T10:25:28;1.07;;;1.07;;
10661;SDS011;5379;51.034;7.006;2024-02-26T10:27:56;1.27;;;1.27;;
10661;SDS011;5379;51.034;7.006;2024-02-26T10:30:27;1.00;;;1.00;;
10661;SDS011;5379;51.034;7.006;2024-02-26T10:32:54;1.00;;;1.00;;
10661;SDS011;5379;51.034;7.006;2024-02-26T10:35:22;1.63;;;1.53;;
10661;SDS011;5379;51.034;7.006;2024-02-26T10:37:50;1.30;;;1.20;;
10661;SDS011;5379;51.034;7.006;2024-02-26T10:40:19;2.13;;;1.27;;
10661;SDS011;5379;51.034;7.006;2024-02-26T10:42:45;1.80;;;1.60;;
10661;SDS011;5379;51.034;7.006;2024-02-26T10:45:12;0.93;;;0.93;;
10661;SDS011;5379;51.034;7.006;2024-02-26T10:47:40;1.53;;;1.50;;
10661;SDS011;5379;51.034;7.006;2024-02-26T10:50:07;1.30;;;1.30;;
10661;SDS011;5379;51.034;7.006;2024-02-26T10:52:35;1.93;;;1.70;;
10661;SDS011;5379;51.034;7.006;2024-02-26T10:55:03;2.00;;;1.50;;
10661;SDS011;5379;51.034;7.006;2024-02-26T10:57:33;1.73;;;1.63;;
10661;SDS011;5379;51.034;7.006;2024-02-26T11:00:05;1.93;;;1.80;;
10661;SDS011;5379;51.034;7.006;2024-02-26T11:02:35;1.10;;;1.10;;
10661;SDS011;5379;51.034;7.006;2024-02-26T11:05:02;1.73;;;1.63;;
10661;SDS011;5379;51.034;7.006;2024-02-26T11:07:30;1.00;;;1.00;;
10661;SDS011;5379;51.034;7.006;2024-02-26T11:09:58;1.07;;;1.00;;
10661;SDS011;5379;51.034;7.006;2024-02-26T11:12:27;1.43;;;1.33;;
10661;SDS011;5379;51.034;7.006;2024-02-26T11:14:56;2.00;;;1.47;;
10661;SDS011;5379;51.034;7.006;2024-02-26T11:17:26;1.20;;;1.20;;
10661;SDS011;5379;51.034;7.006;2024-02-26T11:19:56;1.07;;;1.07;;
10661;SDS011;5379;51.034;7.006;2024-02-26T11:22:24;1.60;;;1.30;;
10661;SDS011;5379;51.034;7.006;2024-02-26T11:24:52;3.10;;;1.80;;
10661;SDS011;5379;51.034;7.006;2024-02-26T11:27:23;1.27;;;1.10;;
10661;SDS011;5379;51.034;7.006;2024-02-26T11:29:55;2.77;;;1.73;;
10661;SDS011;5379;51.034;7.006;2024-02-26T11:32:26;1.47;;;1.30;;
10661;SDS011;5379;51.034;7.006;2024-02-26T11:34:55;1.60;;;1.50;;
10661;SDS011;5379;51.034;7.006;2024-02-26T11:37:22;2.07;;;1.37;;
10661;SDS011;5379;51.034;7.006;2024-02-26T11:39:51;1.50;;;1.40;;
10661;SDS011;5379;51.034;7.006;2024-02-26T11:42:22;1.60;;;1.57;;
10661;SDS011;5379;51.034;7.006;2024-02-26T11:44:50;1.37;;;1.30;;
10661;SDS011;5379;51.034;7.006;2024-02-26T11:47:19;1.37;;;1.37;;
10661;SDS011;5379;51.034;7.006;2024-02-26T11:49:47;2.30;;;1.53;;
10661;SDS011;5379;51.034;7.006;2024-02-26T11:52:15;1.20;;;1.20;;
10661;SDS011;5379;51.034;7.006;2024-02-26T11:54:45;5.10;;;1.53;;
10661;SDS011;5379;51.034;7.006;2024-02-26T11:57:23;1.70;;;1.60;;
10661;SDS011;5379;51.034;7.006;2024-02-26T11:59:51;2.93;;;2.77;;
10661;SDS011;5379;51.034;7.006;2024-02-26T12:05:06;2.43;;;1.73;;
10661;SDS011;5379;51.034;7.006;2024-02-26T12:07:37;1.47;;;1.40;;
10661;SDS011;5379;51.034;7.006;2024-02-26T12:10:14;2.50;;;1.97;;
10661;SDS011;5379;51.034;7.006;2024-02-26T12:12:53;2.13;;;2.03;;
10661;SDS011;5379;51.034;7.006;2024-02-26T12:15:22;2.83;;;2.47;;
10661;SDS011;5379;51.034;7.006;2024-02-26T12:17:49;3.43;;;1.73;;
10661;SDS011;5379;51.034;7.006;2024-02-26T12:20:18;2.03;;;1.90;;
10661;SDS011;5379;51.034;7.006;2024-02-26T12:22:46;1.93;;;1.40;;
10661;SDS011;5379;51.034;7.006;2024-02-26T12:25:14;4.47;;;1.93;;
10661;SDS011;5379;51.034;7.006;2024-02-26T12:27:40;1.90;;;1.80;;
10661;SDS011;5379;51.034;7.006;2024-02-26T12:30:08;2.00;;;1.90;;
10661;SDS011;5379;51.034;7.006;2024-02-26T12:32:35;3.57;;;2.07;;
10661;SDS011;5379;51.034;7.006;2024-02-26T12:35:04;1.93;;;1.83;;
10661;SDS011;5379;51.034;7.006;2024-02-26T12:37:32;4.00;;;1.90;;
10661;SDS011;5379;51.034;7.006;2024-02-26T12:40:02;1.80;;;1.70;;
10661;SDS011;5379;51.034;7.006;2024-02-26T12:42:30;1.70;;;1.60;;
10661;SDS011;5379;51.034;7.006;2024-02-26T12:45:04;2.00;;;1.90;;
10661;SDS011;5379;51.034;7.006;2024-02-26T12:47:34;1.90;;;1.80;;
10661;SDS011;5379;51.034;7.006;2024-02-26T12:50:03;1.83;;;1.73;;
10661;SDS011;5379;51.034;7.006;2024-02-26T12:52:31;3.00;;;1.83;;
10661;SDS011;5379;51.034;7.006;2024-02-26T12:54:59;1.70;;;1.60;;
10661;SDS011;5379;51.034;7.006;2024-02-26T12:57:27;2.07;;;1.90;;
10661;SDS011;5379;51.034;7.006;2024-02-26T12:59:55;1.60;;;1.60;;
10661;SDS011;5379;51.034;7.006;2024-02-26T13:02:26;2.30;;;2.10;;
10661;SDS011;5379;51.034;7.006;2024-02-26T13:04:53;1.80;;;1.70;;
10661;SDS011;5379;51.034;7.006;2024-02-26T13:07:23;2.00;;;1.90;;
10661;SDS011;5379;51.034;7.006;2024-02-26T13:09:49;1.60;;;1.40;;
10661;SDS011;5379;51.034;7.006;2024-02-26T13:12:18;1.73;;;1.63;;
10661;SDS011;5379;51.034;7.006;2024-02-26T13:14:45;1.77;;;1.60;;
10661;SDS011;5379;51.034;7.006;2024-02-26T13:17:11;2.47;;;2.30;;
10661;SDS011;5379;51.034;7.006;2024-02-26T13:19:48;2.07;;;1.97;;
10661;SDS011;5379;51.034;7.006;2024-02-26T13:22:15;3.23;;;2.53;;
10661;SDS011;5379;51.034;7.006;2024-02-26T13:24:43;3.93;;;2.80;;
10661;SDS011;5379;51.034;7.006;2024-02-26T13:27:20;2.23;;;2.03;;
10661;SDS011;5379;51.034;7.006;2024-02-26T13:29:47;2.80;;;2.60;;
10661;SDS011;5379;51.034;7.006;2024-02-26T13:32:14;4.13;;;3.23;;
10661;SDS011;5379;51.034;7.006;2024-02-26T13:34:41;3.33;;;2.83;;
10661;SDS011;5379;51.034;7.006;2024-02-26T13:37:08;2.93;;;2.67;;
10661;SDS011;5379;51.034;7.006;2024-02-26T13:39:34;4.70;;;3.23;;
10661;SDS011;5379;51.034;7.006;2024-02-26T13:42:03;4.13;;;2.90;;
10661;SDS011;5379;51.034;7.006;2024-02-26T13:44:30;4.33;;;3.50;;
10661;SDS011;5379;51.034;7.006;2024-02-26T13:46:58;4.37;;;3.17;;
10661;SDS011;5379;51.034;7.006;2024-02-26T13:49:25;3.80;;;3.40;;
10661;SDS011;5379;51.034;7.006;2024-02-26T13:51:52;3.03;;;2.73;;
10661;SDS011;5379;51.034;7.006;2024-02-26T13:54:20;4.57;;;3.70;;
10661;SDS011;5379;51.034;7.006;2024-02-26T13:56:47;3.80;;;3.40;;
10661;SDS011;5379;51.034;7.006;2024-02-26T13:59:15;3.63;;;3.33;;
10661;SDS011;5379;51.034;7.006;2024-02-26T14:01:42;4.97;;;2.63;;
10661;SDS011;5379;51.034;7.006;2024-02-26T14:04:08;3.13;;;2.93;;
10661;SDS011;5379;51.034;7.006;2024-02-26T14:06:35;3.00;;;2.80;;
10661;SDS011;5379;51.034;7.006;2024-02-26T14:09:02;2.30;;;2.20;;
10661;SDS011;5379;51.034;7.006;2024-02-26T14:11:29;2.43;;;2.33;;
10661;SDS011;5379;51.034;7.006;2024-02-26T14:13:56;2.83;;;2.63;;
10661;SDS011;5379;51.034;7.006;2024-02-26T14:16:24;3.80;;;3.47;;
10661;SDS011;5379;51.034;7.006;2024-02-26T14:18:51;4.70;;;4.30;;
10661;SDS011;5379;51.034;7.006;2024-02-26T14:21:17;7.77;;;4.30;;
10661;SDS011;5379;51.034;7.006;2024-02-26T14:23:44;5.10;;;4.63;;
10661;SDS011;5379;51.034;7.006;2024-02-26T14:26:11;5.67;;;4.33;;
10661;SDS011;5379;51.034;7.006;2024-02-26T14:28:38;5.20;;;3.97;;
10661;SDS011;5379;51.034;7.006;2024-02-26T14:31:05;3.47;;;3.27;;
10661;SDS011;5379;51.034;7.006;2024-02-26T14:33:38;3.63;;;3.33;;
10661;SDS011;5379;51.034;7.006;2024-02-26T14:36:06;4.57;;;3.60;;
10661;SDS011;5379;51.034;7.006;2024-02-26T14:38:33;4.47;;;3.60;;
10661;SDS011;5379;51.034;7.006;2024-02-26T14:41:00;12.67;;;3.93;;
10661;SDS011;5379;51.034;7.006;2024-02-26T14:43:27;4.40;;;4.03;;
10661;SDS011;5379;51.034;7.006;2024-02-26T14:45:54;4.07;;;3.77;;
10661;SDS011;5379;51.034;7.006;2024-02-26T14:48:20;4.37;;;3.90;;
10661;SDS011;5379;51.034;7.006;2024-02-26T14:50:49;7.57;;;4.10;;
10661;SDS011;5379;51.034;7.006;2024-02-26T14:53:15;4.00;;;3.67;;
10661;SDS011;5379;51.034;7.006;2024-02-26T14:55:43;4.33;;;4.03;;
10661;SDS011;5379;51.034;7.006;2024-02-26T14:58:09;4.03;;;3.73;;
10661;SDS011;5379;51.034;7.006;2024-02-26T15:00:36;4.57;;;4.17;;
10661;SDS011;5379;51.034;7.006;2024-02-26T15:03:04;5.87;;;4.43;;
10661;SDS011;5379;51.034;7.006;2024-02-26T15:05:31;5.67;;;4.30;;
10661;SDS011;5379;51.034;7.006;2024-02-26T15:08:00;5.60;;;4.23;;
10661;SDS011;5379;51.034;7.006;2024-02-26T15:10:27;4.90;;;4.50;;
10661;SDS011;5379;51.034;7.006;2024-02-26T15:12:54;6.90;;;4.63;;
10661;SDS011;5379;51.034;7.006;2024-02-26T15:15:21;5.37;;;4.33;;
10661;SDS011;5379;51.034;7.006;2024-02-26T15:17:48;5.33;;;4.80;;
10661;SDS011;5379;51.034;7.006;2024-02-26T15:20:16;5.17;;;4.67;;
10661;SDS011;5379;51.034;7.006;2024-02-26T15:22:43;5.83;;;4.97;;
10661;SDS011;5379;51.034;7.006;2024-02-26T15:25:11;9.63;;;5.30;;
10661;SDS011;5379;51.034;7.006;2024-02-26T15:27:38;4.50;;;4.20;;
10661;SDS011;5379;51.034;7.006;2024-02-26T15:30:05;5.50;;;4.87;;
10661;SDS011;5379;51.034;7.006;2024-02-26T15:32:33;4.73;;;4.33;;
10661;SDS011;5379;51.034;7.006;2024-02-26T15:35:00;6.17;;;4.20;;
10661;SDS011;5379;51.034;7.006;2024-02-26T15:37:26;5.30;;;4.10;;
10661;SDS011;5379;51.034;7.006;2024-02-26T15:39:53;3.70;;;3.40;;
10661;SDS011;5379;51.034;7.006;2024-02-26T15:42:22;4.90;;;4.40;;
10661;SDS011;5379;51.034;7.006;2024-02-26T15:44:50;4.00;;;3.70;;
10661;SDS011;5379;51.034;7.006;2024-02-26T15:47:17;4.73;;;3.80;;
10661;SDS011;5379;51.034;7.006;2024-02-26T15:49:43;6.83;;;5.13;;
10661;SDS011;5379;51.034;7.006;2024-02-26T15:52:10;4.70;;;4.23;;
10661;SDS011;5379;51.034;7.006;2024-02-26T15:54:37;4.23;;;3.93;;
10661;SDS011;5379;51.034;7.006;2024-02-26T15:57:05;7.40;;;4.40;;
10661;SDS011;5379;51.034;7.006;2024-02-26T15:59:33;5.50;;;5.00;;
10661;SDS011;5379;51.034;7.006;2024-02-26T16:01:59;4.83;;;4.43;;
10661;SDS011;5379;51.034;7.006;2024-02-26T16:04:26;5.07;;;3.90;;
10661;SDS011;5379;51.034;7.006;2024-02-26T16:06:53;3.87;;;3.63;;
10661;SDS011;5379;51.034;7.006;2024-02-26T16:09:26;5.10;;;4.20;;
10661;SDS011;5379;51.034;7.006;2024-02-26T16:11:54;5.97;;;4.30;;
10661;SDS011;5379;51.034;7.006;2024-02-26T16:14:25;5.57;;;4.53;;
10661;SDS011;5379;51.034;7.006;2024-02-26T16:17:04;4.63;;;4.27;;
10661;SDS011;5379;51.034;7.006;2024-02-26T16:19:37;4.80;;;4.40;;
10661;SDS011;5379;51.034;7.006;2024-02-26T16:22:04;6.03;;;5.07;;
10661;SDS011;5379;51.034;7.006;2024-02-26T16:24:31;5.63;;;4.57;;
10661;SDS011;5379;51.034;7.006;2024-02-26T16:26:58;6.20;;;4.93;;
10661;SDS011;5379;51.034;7.006;2024-02-26T16:29:25;5.10;;;4.33;;
10661;SDS011;5379;51.034;7.006;2024-02-26T16:31:52;4.27;;;3.97;;
10661;SDS011;5379;51.034;7.006;2024-02-26T16:34:21;6.53;;;5.03;;
10661;SDS011;5379;51.034;7.006;2024-02-26T16:36:48;11.73;;;4.97;;
10661;SDS011;5379;51.034;7.006;2024-02-26T16:39:15;4.83;;;3.87;;
10661;SDS011;5379;51.034;7.006;2024-02-26T16:41:42;4.27;;;3.90;;
10661;SDS011;5379;51.034;7.006;2024-02-26T16:44:08;8.00;;;4.50;;
10661;SDS011;5379;51.034;7.006;2024-02-26T16:46:35;5.47;;;5.03;;
10661;SDS011;5379;51.034;7.006;2024-02-26T16:49:02;4.77;;;4.37;;
10661;SDS011;5379;51.034;7.006;2024-02-26T16:51:30;7.87;;;5.00;;
10661;SDS011;5379;51.034;7.006;2024-02-26T16:53:57;6.17;;;5.57;;
10661;SDS011;5379;51.034;7.006;2024-02-26T16:56:24;7.57;;;5.67;;
10661;SDS011;5379;51.034;7.006;2024-02-26T16:58:50;5.83;;;5.20;;
10661;SDS011;5379;51.034;7.006;2024-02-26T17:01:18;5.57;;;4.57;;
10661;SDS011;5379;51.034;7.006;2024-02-26T17:03:45;5.53;;;4.93;;
10661;SDS011;5379;51.034;7.006;2024-02-26T17:06:12;6.00;;;4.90;;
10661;SDS011;5379;51.034;7.006;2024-02-26T17:08:41;5.07;;;4.57;;
10661;SDS011;5379;51.034;7.006;2024-02-26T17:11:08;5.73;;;4.90;;
10661;SDS011;5379;51.034;7.006;2024-02-26T17:13:35;4.93;;;4.37;;
10661;SDS011;5379;51.034;7.006;2024-02-26T17:16:02;5.43;;;3.97;;
10661;SDS011;5379;51.034;7.006;2024-02-26T17:18:29;4.47;;;4.07;;
10661;SDS011;5379;51.034;7.006;2024-02-26T17:20:56;4.47;;;3.77;;
10661;SDS011;5379;51.034;7.006;2024-02-26T17:23:23;4.27;;;3.83;;
10661;SDS011;5379;51.034;7.006;2024-02-26T17:25:52;7.37;;;4.10;;
10661;SDS011;5379;51.034;7.006;2024-02-26T17:28:19;7.77;;;4.53;;
10661;SDS011;5379;51.034;7.006;2024-02-26T17:30:46;4.47;;;4.07;;
10661;SDS011;5379;51.034;7.006;2024-02-26T17:33:13;4.10;;;3.80;;
10661;SDS011;5379;51.034;7.006;2024-02-26T17:35:39;3.70;;;3.40;;
10661;SDS011;5379;51.034;7.006;2024-02-26T17:38:06;3.90;;;3.60;;
10661;SDS011;5379;51.034;7.006;2024-02-26T17:40:33;3.13;;;2.93;;
10661;SDS011;5379;51.034;7.006;2024-02-26T17:43:01;4.63;;;3.77;;
10661;SDS011;5379;51.034;7.006;2024-02-26T17:45:28;3.30;;;3.00;;
10661;SDS011;5379;51.034;7.006;2024-02-26T17:47:56;3.90;;;3.53;;
10661;SDS011;5379;51.034;7.006;2024-02-26T17:50:22;3.00;;;2.80;;
10661;SDS011;5379;51.034;7.006;2024-02-26T17:52:49;5.13;;;3.73;;
10661;SDS011;5379;51.034;7.006;2024-02-26T17:55:18;3.33;;;3.10;;
10661;SDS011;5379;51.034;7.006;2024-02-26T17:57:45;3.30;;;3.10;;
10661;SDS011;5379;51.034;7.006;2024-02-26T18:00:14;2.57;;;2.40;;
10661;SDS011;5379;51.034;7.006;2024-02-26T18:02:42;4.03;;;3.17;;
10661;SDS011;5379;51.034;7.006;2024-02-26T18:05:08;4.30;;;3.23;;
10661;SDS011;5379;51.034;7.006;2024-02-26T18:07:36;3.57;;;2.17;;
10661;SDS011;5379;51.034;7.006;2024-02-26T18:10:03;3.67;;;2.70;;
10661;SDS011;5379;51.034;7.006;2024-02-26T18:12:33;5.20;;;3.30;;
10661;SDS011;5379;51.034;7.006;2024-02-26T18:15:01;3.03;;;2.47;;
10661;SDS011;5379;51.034;7.006;2024-02-26T18:17:31;4.50;;;3.17;;
10661;SDS011;5379;51.034;7.006;2024-02-26T18:19:59;3.00;;;2.80;;
10661;SDS011;5379;51.034;7.006;2024-02-26T18:22:27;2.90;;;2.70;;
10661;SDS011;5379;51.034;7.006;2024-02-26T18:24:54;3.67;;;3.07;;
10661;SDS011;5379;51.034;7.006;2024-02-26T18:27:21;2.57;;;2.37;;
10661;SDS011;5379;51.034;7.006;2024-02-26T18:29:48;3.50;;;3.20;;
10661;SDS011;5379;51.034;7.006;2024-02-26T18:32:15;3.47;;;3.23;;
10661;SDS011;5379;51.034;7.006;2024-02-26T18:34:44;4.13;;;2.67;;
10661;SDS011;5379;51.034;7.006;2024-02-26T18:37:11;4.57;;;4.17;;
10661;SDS011;5379;51.034;7.006;2024-02-26T18:39:39;3.40;;;3.20;;
10661;SDS011;5379;51.034;7.006;2024-02-26T18:42:06;3.67;;;3.40;;
10661;SDS011;5379;51.034;7.006;2024-02-26T18:44:35;3.60;;;3.27;;
10661;SDS011;5379;51.034;7.006;2024-02-26T18:47:04;3.40;;;3.10;;
10661;SDS011;5379;51.034;7.006;2024-02-26T18:49:32;4.47;;;3.47;;
10661;SDS011;5379;51.034;7.006;2024-02-26T18:52:02;5.10;;;3.43;;
10661;SDS011;5379;51.034;7.006;2024-02-26T18:54:30;4.23;;;3.63;;
10661;SDS011;5379;51.034;7.006;2024-02-26T18:56:56;4.10;;;3.73;;
10661;SDS011;5379;51.034;7.006;2024-02-26T18:59:23;3.13;;;2.87;;
10661;SDS011;5379;51.034;7.006;2024-02-26T19:01:50;4.47;;;4.07;;
10661;SDS011;5379;51.034;7.006;2024-02-26T19:04:17;5.60;;;3.70;;
10661;SDS011;5379;51.034;7.006;2024-02-26T19:06:44;4.57;;;4.17;;
10661;SDS011;5379;51.034;7.006;2024-02-26T19:09:13;4.03;;;3.63;;
10661;SDS011;5379;51.034;7.006;2024-02-26T19:11:44;3.20;;;2.90;;
10661;SDS011;5379;51.034;7.006;2024-02-26T19:14:11;5.00;;;4.53;;
10661;SDS011;5379;51.034;7.006;2024-02-26T19:16:38;3.77;;;3.47;;
10661;SDS011;5379;51.034;7.006;2024-02-26T19:19:06;3.73;;;3.40;;
10661;SDS011;5379;51.034;7.006;2024-02-26T19:21:33;4.90;;;3.27;;
10661;SDS011;5379;51.034;7.006;2024-02-26T19:24:01;4.53;;;3.90;;
10661;SDS011;5379;51.034;7.006;2024-02-26T19:26:31;3.47;;;3.17;;
10661;SDS011;5379;51.034;7.006;2024-02-26T19:28:58;8.80;;;2.77;;
10661;SDS011;5379;51.034;7.006;2024-02-26T19:31:25;2.53;;;2.33;;
10661;SDS011;5379;51.034;7.006;2024-02-26T19:33:54;3.43;;;3.13;;
10661;SDS011;5379;51.034;7.006;2024-02-26T19:36:21;3.70;;;3.40;;